Spar Aries — LATO7 — position and weather

sailwx.info

Track history (hours):
 
Tides and Currents Weather Stations Pressure Air Temp Water Temp Dewpoint Dewpoint Depression Visibility Wind Speed Wind Dir Waves Ship Positions

Spar Aries

Last reported at 2017-Dec-15 00:38 UTC. Time now 2017-Dec-16 12:57 UTC.
Position N 35°20' W 017°52'.

Length 199 m; draft 12.2 m.

Type: Ship. MMSI: 257881000.

Date/timePositionNaut miles runAvg speedWind from/ knotsBaromVisibWave heightAir tempDewpointWater temp
2017-Dec-15 00:38N 35°20' W 017°52'21113.1
2017-Dec-14 08:34N 35°07' W 022°10'712.6
2017-Dec-14 07:59N 35°07' W 022°19'1012.5
2017-Dec-14 07:12N 35°06' W 022°31'312.4
2017-Dec-14 06:56N 35°06' W 022°35'612.4
2017-Dec-14 06:28N 35°06' W 022°42'1012.4
2017-Dec-14 05:41N 35°05' W 022°54'312.6
2017-Dec-14 05:25N 35°05' W 022°58'512.4
2017-Dec-14 05:00N 35°05' W 023°04'612.4
2017-Dec-14 04:30N 35°04' W 023°11'1112.2
2017-Dec-14 03:37N 35°04' W 023°25'112.3
2017-Dec-14 03:30N 35°04' W 023°27'612.7
2017-Dec-14 03:00N 35°03' W 023°34'812.7
2017-Dec-14 02:24N 35°03' W 023°44'512.6
2017-Dec-14 02:00N 35°03' W 023°50'612.9
2017-Dec-14 01:31N 35°02' W 023°57'612.8
2017-Dec-14 01:00N 35°02' W 024°05'612.6
2017-Dec-14 00:30N 35°01' W 024°13'612.6
2017-Dec-14 00:00N 35°01' W 024°21'712.7
2017-Dec-13 23:29N 35°00' W 024°29'612.8
2017-Dec-13 23:00N 35°00' W 024°36'612.7
2017-Dec-13 22:30N 34°60' W 024°44'612.8
2017-Dec-13 22:00N 34°59' W 024°52'712.8
2017-Dec-13 21:30N 34°59' W 024°60'712.8
2017-Dec-13 20:56N 34°58' W 025°08'612.9
2017-Dec-13 20:29N 34°58' W 025°15'712.4
2017-Dec-13 19:57N 34°58' W 025°23'611.9
2017-Dec-13 19:28N 34°57' W 025°31'712.2
2017-Dec-13 18:53N 34°57' W 025°39'812.3
2017-Dec-13 18:13N 34°57' W 025°49'212.3
2017-Dec-13 18:00N 34°56' W 025°52'712.4
2017-Dec-13 17:26N 34°56' W 026°01'812.2
2017-Dec-13 16:45N 34°55' W 026°11'2112.1
2017-Dec-13 15:02N 34°54' W 026°36'012.4
2017-Dec-13 15:01N 34°54' W 026°37'811.9
2017-Dec-13 14:20N 34°54' W 026°47'5611.5
2017-Dec-13 09:29N 34°50' W 027°55'4112.4
2017-Dec-13 06:10N 34°48' W 028°45'  
Track history (hours):
 
Tides and Currents Weather Stations Pressure Air Temp Water Temp Dewpoint Dewpoint Depression Visibility Wind Speed Wind Dir Waves Ship Positions

Spar Aries

Last reported at 2017-Dec-15 00:38 UTC. Time now 2017-Dec-16 12:57 UTC.
Position N 35°20' W 017°52'.

Length 199 m; draft 12.2 m.

Type: Ship. MMSI: 257881000.

Date/timePositionNaut miles runAvg speedWind from/ knotsBaromVisibWave heightAir tempDewpointWater temp
2017-Dec-15 00:38N 35°20' W 017°52'21113.1
2017-Dec-14 08:34N 35°07' W 022°10'712.6
2017-Dec-14 07:59N 35°07' W 022°19'1012.5
2017-Dec-14 07:12N 35°06' W 022°31'312.4
2017-Dec-14 06:56N 35°06' W 022°35'612.4
2017-Dec-14 06:28N 35°06' W 022°42'1012.4
2017-Dec-14 05:41N 35°05' W 022°54'312.6
2017-Dec-14 05:25N 35°05' W 022°58'512.4
2017-Dec-14 05:00N 35°05' W 023°04'612.4
2017-Dec-14 04:30N 35°04' W 023°11'1112.2
2017-Dec-14 03:37N 35°04' W 023°25'112.3
2017-Dec-14 03:30N 35°04' W 023°27'612.7
2017-Dec-14 03:00N 35°03' W 023°34'812.7
2017-Dec-14 02:24N 35°03' W 023°44'512.6
2017-Dec-14 02:00N 35°03' W 023°50'612.9
2017-Dec-14 01:31N 35°02' W 023°57'612.8
2017-Dec-14 01:00N 35°02' W 024°05'612.6
2017-Dec-14 00:30N 35°01' W 024°13'612.6
2017-Dec-14 00:00N 35°01' W 024°21'712.7
2017-Dec-13 23:29N 35°00' W 024°29'612.8
2017-Dec-13 23:00N 35°00' W 024°36'612.7
2017-Dec-13 22:30N 34°60' W 024°44'612.8
2017-Dec-13 22:00N 34°59' W 024°52'712.8
2017-Dec-13 21:30N 34°59' W 024°60'712.8
2017-Dec-13 20:56N 34°58' W 025°08'612.9
2017-Dec-13 20:29N 34°58' W 025°15'712.4
2017-Dec-13 19:57N 34°58' W 025°23'611.9
2017-Dec-13 19:28N 34°57' W 025°31'712.2
2017-Dec-13 18:53N 34°57' W 025°39'812.3
2017-Dec-13 18:13N 34°57' W 025°49'212.3
2017-Dec-13 18:00N 34°56' W 025°52'712.4
2017-Dec-13 17:26N 34°56' W 026°01'812.2
2017-Dec-13 16:45N 34°55' W 026°11'2112.1
2017-Dec-13 15:02N 34°54' W 026°36'012.4
2017-Dec-13 15:01N 34°54' W 026°37'811.9
2017-Dec-13 14:20N 34°54' W 026°47'5611.5
2017-Dec-13 09:29N 34°50' W 027°55'4112.4
2017-Dec-13 06:10N 34°48' W 028°45'  

Dump ship's entire track history